Time;durP1;ratioP1;P1;durP2;ratioP2;P2;SDS_P1;SDS_P2;PMS_P1;PMS_P2;Temp;Humidity;BMP_temperature;BMP_pressure;BME280_temperature;BME280_humidity;BME280_pressure;Samples;Min_cycle;Max_cycle;Signal;HPM_P1;HPM_P2
2023/04/22 00:00:48;;;;;;;6.87;5.17;;;;;;;11.38;81.63;64143.97;5052828;28;20181;-56
2023/04/22 00:03:13;;;;;;;7.13;5.63;;;;;;;11.41;80.40;64146.72;5052468;28;20209;-57
2023/04/22 00:05:40;;;;;;;7.13;4.77;;;;;;;11.19;82.75;64123.16;5052509;28;20198;-57
2023/04/22 00:08:07;;;;;;;9.40;5.77;;;;;;;11.04;82.83;64106.75;5052527;28;20221;-57
2023/04/22 00:10:33;;;;;;;9.17;5.70;;;;;;;11.11;82.89;64114.38;5052403;28;20195;-57
2023/04/22 00:12:58;;;;;;;9.37;6.20;;;;;;;11.21;79.99;64124.81;5052597;28;20296;-57
2023/04/22 00:15:25;;;;;;;5.73;5.00;;;;;;;11.01;79.20;64102.91;5052544;28;20263;-56
2023/04/22 00:17:51;;;;;;;7.13;5.30;;;;;;;10.90;79.61;64088.88;5052553;28;20243;-57
2023/04/22 00:20:20;;;;;;;7.47;5.50;;;;;;;10.70;80.37;64067.00;5052363;28;20189;-59
2023/04/22 00:22:45;;;;;;;9.83;5.23;;;;;;;10.65;80.50;64059.00;5034816;28;20266;-56
2023/04/22 00:25:11;;;;;;;8.53;5.03;;;;;;;10.47;81.35;64044.31;5052131;28;20652;-58
2023/04/22 00:27:37;;;;;;;6.30;4.73;;;;;;;10.52;80.77;64047.84;5052137;28;20189;-56
2023/04/22 00:30:03;;;;;;;5.63;4.53;;;;;;;10.38;81.15;64032.53;5052039;28;20644;-57
2023/04/22 00:32:28;;;;;;;6.13;4.47;;;;;;;10.32;81.17;64028.47;5052200;28;20236;-57
2023/04/22 00:34:54;;;;;;;6.13;4.77;;;;;;;10.23;81.84;64018.06;5050930;28;20703;-56
2023/04/22 00:37:20;;;;;;;4.37;3.70;;;;;;;10.16;82.50;64007.91;5052143;28;20190;-58
2023/04/22 00:39:45;;;;;;;9.50;4.00;;;;;;;10.18;83.20;64013.13;5051965;28;20287;-56
2023/04/22 00:42:12;;;;;;;6.43;4.30;;;;;;;10.33;82.84;64027.03;5051948;28;20190;-56
2023/04/22 00:44:39;;;;;;;6.17;4.50;;;;;;;10.38;82.01;64031.97;5075001;22;20221;-57
2023/04/22 00:47:06;;;;;;;5.60;4.00;;;;;;;10.47;81.10;64044.31;5071958;28;20197;-56
2023/04/22 00:49:33;;;;;;;6.30;3.77;;;;;;;10.56;81.01;64054.75;5055331;28;20217;-56
2023/04/22 00:51:59;;;;;;;4.83;4.10;;;;;;;10.54;81.64;64050.03;5051895;28;20189;-58
2023/04/22 00:54:24;;;;;;;6.50;4.37;;;;;;;10.63;81.65;64059.31;5051410;28;20228;-56
2023/04/22 00:56:49;;;;;;;8.17;4.43;;;;;;;10.66;81.89;64063.16;5051793;28;20582;-57
2023/04/22 00:59:15;;;;;;;4.53;3.93;;;;;;;10.51;82.91;64048.69;5051982;28;20822;-57
2023/04/22 01:01:41;;;;;;;5.90;4.67;;;;;;;10.26;84.29;64018.84;5051637;28;20204;-57
2023/04/22 01:04:07;;;;;;;9.33;5.23;;;;;;;10.00;86.57;63990.91;5051823;28;20214;-57
2023/04/22 01:06:34;;;;;;;7.17;4.87;;;;;;;10.40;85.42;64034.16;5051770;28;20604;-57
2023/04/22 01:08:59;;;;;;;4.93;3.93;;;;;;;10.71;83.63;64068.06;5051439;28;20229;-56
2023/04/22 01:11:25;;;;;;;7.10;4.53;;;;;;;10.62;83.25;64061.31;5051574;28;20193;-57
2023/04/22 01:13:51;;;;;;;9.27;4.10;;;;;;;10.46;82.15;64043.78;5051334;28;20291;-56
2023/04/22 01:16:17;;;;;;;7.50;4.03;;;;;;;10.58;80.35;64056.38;5051313;28;20252;-56
2023/04/22 01:18:43;;;;;;;4.73;3.93;;;;;;;10.46;79.70;64043.25;5051621;28;20214;-57
2023/04/22 01:21:08;;;;;;;7.07;4.03;;;;;;;10.33;81.25;64026.47;5051340;28;20186;-56
2023/04/22 01:23:33;;;;;;;6.87;4.23;;;;;;;10.22;81.55;64016.97;5051280;28;20218;-56
2023/04/22 01:25:59;;;;;;;4.57;3.60;;;;;;;10.34;81.12;64025.06;5051587;28;20644;-56
2023/04/22 01:28:25;;;;;;;5.80;4.50;;;;;;;10.38;80.32;64031.97;5051447;28;20715;-58
2023/04/22 01:30:51;;;;;;;4.37;3.90;;;;;;;10.46;80.29;64041.28;5051403;28;20626;-57
2023/04/22 01:33:17;;;;;;;5.93;3.73;;;;;;;10.42;80.73;64034.38;5051071;28;20240;-57
2023/04/22 01:35:43;;;;;;;7.07;4.30;;;;;;;10.41;80.66;64037.75;5051056;28;20210;-60
2023/04/22 01:38:10;;;;;;;7.13;4.60;;;;;;;10.42;80.83;64036.91;5033236;28;20628;-61
2023/04/22 01:40:37;;;;;;;7.80;4.43;;;;;;;10.26;81.70;64019.38;5050996;28;20304;-61
2023/04/22 01:43:04;;;;;;;6.07;4.50;;;;;;;10.39;81.83;64033.06;5051703;28;20706;-58
2023/04/22 01:45:30;;;;;;;7.73;4.90;;;;;;;10.48;81.10;64045.44;5050757;28;20181;-57
2023/04/22 01:47:56;;;;;;;8.33;3.97;;;;;;;10.51;81.48;64049.25;5050995;28;20690;-56
2023/04/22 01:50:22;;;;;;;7.60;5.23;;;;;;;10.37;83.01;64033.38;5050876;28;20231;-58
2023/04/22 01:52:48;;;;;;;6.80;5.30;;;;;;;10.30;82.84;64020.69;5050794;28;20208;-56
2023/04/22 01:55:14;;;;;;;7.97;4.90;;;;;;;10.20;83.82;64012.28;5050646;28;20213;-57
2023/04/22 01:57:39;;;;;;;5.63;4.50;;;;;;;10.39;82.85;64035.56;5050931;28;20232;-61
2023/04/22 02:00:07;;;;;;;6.10;4.77;;;;;;;10.39;82.95;64035.56;5050864;28;20189;-60
2023/04/22 02:02:32;;;;;;;7.00;5.37;;;;;;;10.26;84.67;64016.84;5051074;28;20208;-61
2023/04/22 02:04:58;;;;;;;5.80;4.87;;;;;;;10.15;85.65;64009.88;5050483;28;20687;-61
2023/04/22 02:07:24;;;;;;;7.60;5.40;;;;;;;10.27;84.43;64023.00;5050720;28;20195;-61
2023/04/22 02:09:50;;;;;;;8.23;5.33;;;;;;;10.37;83.68;64033.38;5050453;28;20683;-61
2023/04/22 02:12:15;;;;;;;7.53;5.13;;;;;;;10.38;83.07;64032.53;5050465;28;20201;-60
2023/04/22 02:14:41;;;;;;;10.17;5.47;;;;;;;10.39;83.66;64036.13;5050464;28;20225;-60
2023/04/22 02:17:06;;;;;;;5.77;4.90;;;;;;;10.38;84.16;64032.53;5050834;28;20193;-57
2023/04/22 02:19:32;;;;;;;6.90;5.17;;;;;;;10.45;84.53;64042.13;5050435;28;20658;-55
2023/04/22 02:21:57;;;;;;;6.13;5.43;;;;;;;10.70;83.84;64070.06;5032737;28;20652;-60
2023/04/22 02:24:23;;;;;;;11.80;6.50;;;;;;;10.54;84.39;64052.00;5050866;28;20300;-60
2023/04/22 02:26:48;;;;;;;11.87;5.60;;;;;;;10.42;83.92;64036.91;5050412;28;20678;-61
2023/04/22 02:29:15;;;;;;;9.20;5.63;;;;;;;10.50;83.53;64048.16;5050690;28;20217;-58
2023/04/22 02:31:40;;;;;;;7.23;4.93;;;;;;;10.56;83.36;64051.66;5050270;28;20730;-56
2023/04/22 02:34:06;;;;;;;7.43;4.87;;;;;;;10.49;83.85;64046.50;5050510;28;20292;-57
2023/04/22 02:36:33;;;;;;;6.37;4.97;;;;;;;10.37;85.53;64031.41;5050215;28;20380;-58
2023/04/22 02:38:58;;;;;;;8.30;5.37;;;;;;;10.44;84.49;64038.53;5050318;28;20253;-57
2023/04/22 02:41:25;;;;;;;9.13;5.20;;;;;;;10.56;84.03;64054.19;5050357;28;20212;-57
2023/04/22 02:43:51;;;;;;;6.83;4.50;;;;;;;10.59;83.30;64054.94;5050093;28;20213;-59
2023/04/22 02:46:16;;;;;;;9.87;5.53;;;;;;;10.62;82.28;64058.22;5050158;28;20288;-58
2023/04/22 02:48:42;;;;;;;7.33;5.40;;;;;;;10.54;82.30;64047.50;5050041;28;20213;-57
2023/04/22 02:51:07;;;;;;;11.53;5.23;;;;;;;10.33;82.81;64026.47;5050176;28;20604;-57
2023/04/22 02:53:32;;;;;;;6.63;5.03;;;;;;;10.04;84.23;63997.78;5050303;28;20703;-59
2023/04/22 02:55:58;;;;;;;9.70;5.23;;;;;;;10.02;85.18;63995.59;5049963;28;20645;-58
2023/04/22 02:58:25;;;;;;;7.40;5.33;;;;;;;10.24;84.34;64017.19;5033977;28;20224;-57
2023/04/22 03:00:50;;;;;;;10.33;5.67;;;;;;;10.27;84.07;64022.44;5053536;28;20189;-59
2023/04/22 03:03:16;;;;;;;6.40;5.17;;;;;;;10.43;83.12;64039.94;5053359;28;20213;-58
2023/04/22 03:05:41;;;;;;;5.23;4.73;;;;;;;10.21;83.15;64013.91;5053559;28;20190;-57
2023/04/22 03:08:06;;;;;;;7.07;4.90;;;;;;;9.97;84.72;63990.69;5053224;28;20278;-58
2023/04/22 03:10:32;;;;;;;7.33;5.20;;;;;;;10.11;83.91;64006.03;5053547;28;20193;-58
2023/04/22 03:12:57;;;;;;;7.10;5.27;;;;;;;10.18;84.03;64010.63;5035638;28;20221;-58
2023/04/22 03:15:23;;;;;;;7.83;5.30;;;;;;;10.27;83.39;64019.91;5053342;28;20220;-58
2023/04/22 03:17:49;;;;;;;8.80;6.03;;;;;;;10.22;83.87;64011.94;5051909;28;20198;-57
2023/04/22 03:20:14;;;;;;;7.30;5.17;;;;;;;10.22;84.71;64015.00;5053194;28;20188;-58
2023/04/22 03:22:40;;;;;;;7.93;5.70;;;;;;;10.16;84.71;64010.94;5053209;28;20193;-59
2023/04/22 03:25:06;;;;;;;12.33;5.60;;;;;;;10.28;84.79;64023.53;5053086;28;20595;-57
2023/04/22 03:27:31;;;;;;;9.40;5.73;;;;;;;10.28;85.36;64023.53;5053105;28;20178;-57
2023/04/22 03:29:57;;;;;;;9.17;5.90;;;;;;;10.31;84.67;64026.81;5051589;28;20219;-58
2023/04/22 03:32:22;;;;;;;7.90;5.67;;;;;;;10.46;84.54;64043.78;5052905;28;20233;-57
2023/04/22 03:34:48;;;;;;;12.70;5.90;;;;;;;10.36;84.80;64032.28;5052802;28;20210;-57
2023/04/22 03:37:13;;;;;;;8.23;5.97;;;;;;;10.28;85.60;64024.06;5052902;28;20615;-57
2023/04/22 03:39:39;;;;;;;9.40;6.07;;;;;;;10.05;85.93;63996.94;5052844;28;20700;-58
2023/04/22 03:42:05;;;;;;;7.07;5.13;;;;;;;10.00;84.06;63993.97;5034973;28;20683;-58
2023/04/22 03:44:30;;;;;;;8.27;4.80;;;;;;;9.92;83.85;63982.16;5052694;28;20259;-57
2023/04/22 03:46:55;;;;;;;8.53;5.20;;;;;;;9.81;85.02;63973.19;5034935;28;20189;-57
2023/04/22 03:49:21;;;;;;;10.23;5.23;;;;;;;9.62;83.93;63952.41;5052999;28;20217;-58
2023/04/22 03:51:46;;;;;;;11.37;4.93;;;;;;;9.54;84.62;63941.16;5052657;28;20185;-56
2023/04/22 03:54:12;;;;;;;6.63;4.60;;;;;;;9.35;85.45;63922.34;5052847;28;20251;-57
2023/04/22 03:56:37;;;;;;;8.03;4.37;;;;;;;9.17;86.64;63905.75;5052506;28;20198;-57
2023/04/22 03:59:03;;;;;;;5.93;4.77;;;;;;;9.06;86.95;63894.25;5052784;28;20201;-59
2023/04/22 04:01:28;;;;;;;6.10;4.63;;;;;;;9.32;86.58;63917.66;5052682;28;20227;-58
2023/04/22 04:03:53;;;;;;;6.63;4.50;;;;;;;9.45;85.52;63931.31;5034177;28;20292;-57
2023/04/22 04:06:19;;;;;;;7.70;4.33;;;;;;;9.27;85.56;63914.16;5034136;28;20715;-57
2023/04/22 04:08:45;;;;;;;5.90;4.93;;;;;;;9.22;86.16;63906.16;5052192;28;20228;-57
2023/04/22 04:11:10;;;;;;;9.73;4.03;;;;;;;9.36;86.26;63920.91;5052257;28;20557;-57
2023/04/22 04:13:36;;;;;;;7.07;4.80;;;;;;;9.44;86.51;63930.22;5051937;28;20217;-58
2023/04/22 04:16:02;;;;;;;7.43;4.53;;;;;;;9.33;84.43;63920.72;5052199;28;20603;-58
2023/04/22 04:18:28;;;;;;;4.40;3.97;;;;;;;9.30;84.44;63917.97;5052401;28;20225;-61
2023/04/22 04:20:55;;;;;;;6.27;4.47;;;;;;;9.28;83.95;63915.25;5052262;28;20193;-58
2023/04/22 04:23:20;;;;;;;5.53;4.67;;;;;;;9.36;83.89;63923.44;5052378;28;20274;-58
2023/04/22 04:25:46;;;;;;;7.70;4.10;;;;;;;9.18;84.94;63902.34;5052170;28;20197;-58
2023/04/22 04:28:12;;;;;;;8.83;4.73;;;;;;;9.13;85.00;63896.34;5051984;28;20228;-58
2023/04/22 04:30:40;;;;;;;11.03;4.87;;;;;;;9.58;84.57;63948.03;5052093;28;20255;-57
2023/04/22 04:33:06;;;;;;;8.20;5.40;;;;;;;9.57;84.57;63946.94;5051934;28;20597;-57
2023/04/22 04:35:36;;;;;;;5.47;4.63;;;;;;;9.53;85.28;63940.06;5051949;28;20211;-56
2023/04/22 04:38:04;;;;;;;9.33;4.57;;;;;;;9.87;83.97;63979.22;5052416;28;20228;-57
2023/04/22 04:40:30;;;;;;;7.93;4.83;;;;;;;9.93;83.86;63983.81;5052051;28;20186;-57
2023/04/22 04:42:56;;;;;;;6.33;4.07;;;;;;;10.00;84.02;63995.94;5051948;28;20219;-58
2023/04/22 04:45:23;;;;;;;5.93;4.10;;;;;;;10.03;83.56;63994.75;5051966;28;20268;-57
2023/04/22 04:47:51;;;;;;;8.00;5.13;;;;;;;10.03;84.18;63997.25;5033891;28;20223;-59
2023/04/22 04:50:18;;;;;;;6.07;4.87;;;;;;;10.39;82.04;64033.59;5051750;28;20193;-57
2023/04/22 04:52:45;;;;;;;7.93;5.27;;;;;;;10.35;81.76;64028.69;5051795;28;20249;-57
2023/04/22 04:55:10;;;;;;;7.00;4.70;;;;;;;10.45;81.62;64042.13;5051478;28;20297;-58
2023/04/22 04:57:36;;;;;;;8.00;5.47;;;;;;;10.48;82.44;64045.44;5051718;28;20211;-57
2023/04/22 05:00:02;;;;;;;8.87;5.67;;;;;;;10.28;84.56;64023.53;5051639;28;20285;-57
2023/04/22 05:02:27;;;;;;;8.40;6.67;;;;;;;10.29;85.41;64024.63;5051751;28;20239;-58
2023/04/22 05:04:53;;;;;;;11.77;7.30;;;;;;;10.39;84.81;64033.59;5051491;28;20695;-57
2023/04/22 05:07:18;;;;;;;13.43;6.57;;;;;;;10.57;84.01;64055.81;5051388;28;20264;-57
2023/04/22 05:09:44;;;;;;;9.40;6.33;;;;;;;10.96;82.47;64097.97;5051487;28;20214;-57
2023/04/22 05:12:09;;;;;;;11.80;6.03;;;;;;;11.01;81.44;64103.44;5051544;28;20546;-57
2023/04/22 05:14:35;;;;;;;9.10;6.07;;;;;;;10.94;81.33;64098.31;5051090;28;20240;-58
2023/04/22 05:17:02;;;;;;;11.17;6.07;;;;;;;11.13;81.01;64114.06;5033740;28;20284;-59
2023/04/22 05:19:27;;;;;;;6.23;5.03;;;;;;;11.18;80.63;64119.53;5051282;28;20197;-59
2023/04/22 05:21:52;;;;;;;9.43;5.37;;;;;;;11.39;79.72;64144.53;5050570;28;20244;-57
2023/04/22 05:24:18;;;;;;;6.80;5.13;;;;;;;11.25;80.38;64126.66;5051441;28;20676;-57
2023/04/22 05:26:43;;;;;;;9.33;5.90;;;;;;;11.29;79.99;64134.09;5051197;28;20193;-58
2023/04/22 05:29:09;;;;;;;7.27;5.80;;;;;;;11.33;80.07;64137.97;5033456;28;20602;-56
2023/04/22 05:31:34;;;;;;;8.63;5.77;;;;;;;11.35;80.29;64140.16;5051065;28;20566;-57
2023/04/22 05:33:59;;;;;;;8.53;6.27;;;;;;;11.28;80.55;64132.47;5051064;28;20247;-59
2023/04/22 05:36:26;;;;;;;9.00;6.50;;;;;;;11.06;81.23;64105.84;5050892;28;20217;-57
2023/04/22 05:38:52;;;;;;;10.23;7.10;;;;;;;10.85;81.96;64083.41;5050860;28;20217;-58
2023/04/22 05:41:18;;;;;;;14.73;6.30;;;;;;;10.91;81.83;64092.50;5033364;28;20193;-57
2023/04/22 05:43:43;;;;;;;10.63;7.30;;;;;;;10.81;82.43;64081.53;5050878;28;20223;-58
2023/04/22 05:46:09;;;;;;;9.23;6.43;;;;;;;10.65;84.36;64059.53;5050959;28;20198;-58
2023/04/22 05:48:34;;;;;;;9.60;6.97;;;;;;;10.62;83.25;64058.78;5050794;28;20263;-57
2023/04/22 05:51:00;;;;;;;8.67;6.57;;;;;;;10.72;83.84;64072.25;5050796;28;20279;-57
2023/04/22 05:53:25;;;;;;;11.00;7.03;;;;;;;10.93;81.99;64095.22;5050900;28;20224;-57
2023/04/22 05:55:52;;;;;;;16.03;7.07;;;;;;;10.78;82.66;64075.75;5050740;28;20209;-58
2023/04/22 05:58:18;;;;;;;12.20;7.70;;;;;;;10.85;83.46;64083.41;5051008;28;20216;-59
2023/04/22 06:00:43;;;;;;;10.37;7.40;;;;;;;10.69;83.57;64068.41;5050881;28;20193;-58
2023/04/22 06:03:08;;;;;;;10.90;7.37;;;;;;;10.79;83.82;64076.84;5050724;28;20225;-57
2023/04/22 06:05:34;;;;;;;11.70;7.80;;;;;;;10.51;84.89;64046.75;5050656;28;20200;-58
2023/04/22 06:07:59;;;;;;;12.80;8.17;;;;;;;10.55;85.54;64050.56;5050812;28;20560;-58
2023/04/22 06:10:25;;;;;;;13.63;7.90;;;;;;;10.91;83.91;64089.97;5050464;28;20193;-58
2023/04/22 06:12:50;;;;;;;12.60;7.90;;;;;;;11.16;83.52;64114.28;5032564;28;20193;-58
2023/04/22 06:15:16;;;;;;;11.73;7.00;;;;;;;11.31;82.31;64138.28;5050399;28;20680;-57
2023/04/22 06:17:43;;;;;;;12.10;9.03;;;;;;;11.24;82.42;64128.63;5032649;28;20194;-59
2023/04/22 06:20:10;;;;;;;16.80;8.40;;;;;;;11.35;81.32;64140.16;5032706;28;20296;-57
2023/04/22 06:22:35;;;;;;;11.50;7.77;;;;;;;10.91;83.50;64090.53;5050381;28;20204;-58
2023/04/22 06:25:01;;;;;;;9.27;7.20;;;;;;;11.32;82.93;64137.41;5050336;28;20190;-58
2023/04/22 06:27:26;;;;;;;13.83;7.83;;;;;;;11.45;81.96;64149.09;5032513;28;20315;-59
2023/04/22 06:29:52;;;;;;;16.47;8.43;;;;;;;11.65;82.08;64170.50;5050507;28;20620;-59
2023/04/22 06:32:17;;;;;;;14.20;10.83;;;;;;;11.50;82.92;64157.13;5050304;28;20683;-59
2023/04/22 06:34:42;;;;;;;11.13;7.77;;;;;;;11.78;82.29;64185.31;5053895;28;20210;-59
2023/04/22 06:37:08;;;;;;;10.00;8.40;;;;;;;12.08;81.76;64219.63;5053735;28;20644;-58
2023/04/22 06:39:34;;;;;;;8.33;7.50;;;;;;;12.11;82.40;64220.94;5053686;28;20221;-58
2023/04/22 06:42:00;;;;;;;17.67;8.33;;;;;;;11.91;82.28;64199.00;5053740;28;20688;-57
2023/04/22 06:44:26;;;;;;;10.97;8.40;;;;;;;11.80;83.44;64189.47;5053567;28;20220;-57
2023/04/22 06:46:51;;;;;;;11.00;7.97;;;;;;;11.77;83.53;64186.75;5053868;28;20186;-58
2023/04/22 06:49:17;;;;;;;10.40;8.07;;;;;;;11.74;83.87;64180.91;5053712;28;20271;-58
2023/04/22 06:51:42;;;;;;;11.77;9.30;;;;;;;12.04;82.61;64212.72;5053631;28;20567;-59
2023/04/22 06:54:08;;;;;;;11.20;7.57;;;;;;;12.31;81.90;64242.84;5053227;28;20205;-58
2023/04/22 06:56:33;;;;;;;13.07;8.10;;;;;;;12.47;81.41;64259.84;5053428;28;20221;-58
2023/04/22 06:58:59;;;;;;;8.50;6.93;;;;;;;12.44;82.77;64257.09;5053749;28;20275;-58
2023/04/22 07:01:25;;;;;;;9.10;7.37;;;;;;;12.36;83.02;64245.25;5053207;28;20182;-58
2023/04/22 07:03:51;;;;;;;8.60;6.77;;;;;;;12.81;91.90;64294.59;5053100;28;20210;-58
2023/04/22 07:06:16;;;;;;;10.87;7.07;;;;;;;12.88;84.44;64307.34;5053369;28;20632;-59
2023/04/22 07:08:41;;;;;;;12.47;6.80;;;;;;;12.73;82.46;64287.81;5053235;28;20208;-58
2023/04/22 07:11:08;;;;;;;11.47;6.57;;;;;;;12.56;81.86;64267.19;5053444;28;20189;-56
2023/04/22 07:13:34;;;;;;;9.48;7.28;;;;;;;12.56;82.80;64272.25;5053190;28;20247;-58
2023/04/22 07:16:00;;;;;;;8.23;6.00;;;;;;;12.62;81.91;64274.31;5053121;28;20240;-58
2023/04/22 07:18:26;;;;;;;8.50;6.53;;;;;;;12.61;80.86;64277.72;5053271;28;20745;-57
2023/04/22 07:20:52;;;;;;;7.80;6.40;;;;;;;12.75;79.51;64288.03;5053119;28;20186;-58
2023/04/22 07:23:17;;;;;;;11.30;6.97;;;;;;;12.89;79.40;64305.38;5053135;28;20574;-58
2023/04/22 07:25:42;;;;;;;7.20;6.32;;;;;;;12.78;79.74;64295.81;5053207;28;20268;-56
2023/04/22 07:28:08;;;;;;;13.40;6.53;;;;;;;12.92;78.05;64308.66;5053114;28;20308;-58
2023/04/22 07:30:33;;;;;;;13.80;6.50;;;;;;;13.01;79.52;64318.53;5052739;28;20188;-58
2023/04/22 07:32:59;;;;;;;6.57;5.87;;;;;;;13.17;78.68;64339.19;5053114;28;20222;-59
2023/04/22 07:35:24;;;;;;;10.13;6.70;;;;;;;13.32;79.11;64355.66;5052773;28;20355;-56
2023/04/22 07:37:50;;;;;;;9.77;5.63;;;;;;;13.60;76.87;64383.31;5053021;28;20190;-57
2023/04/22 07:40:16;;;;;;;8.07;6.65;;;;;;;13.88;75.86;64410.97;5052922;28;20194;-58
2023/04/22 07:42:41;;;;;;;9.27;6.20;;;;;;;13.96;74.80;64422.84;5052847;28;20648;-58
2023/04/22 07:45:08;;;;;;;6.97;4.32;;;;;;;14.15;72.92;64441.19;5052370;28;20573;-63
2023/04/22 07:47:33;;;;;;;5.50;5.00;;;;;;;13.86;74.01;64413.84;5052513;28;20193;-57
2023/04/22 07:49:59;;;;;;;9.83;4.93;;;;;;;13.91;73.85;64416.81;5053257;28;20204;-58
2023/04/22 07:52:25;;;;;;;10.32;5.63;;;;;;;13.73;74.34;64397.03;5052280;28;20186;-60
2023/04/22 07:54:50;;;;;;;4.70;3.63;;;;;;;13.92;70.89;64420.97;5052174;28;20710;-59
2023/04/22 07:57:16;;;;;;;4.20;3.15;;;;;;;14.07;67.69;64434.94;5052418;28;20588;-58
2023/04/22 07:59:41;;;;;;;6.57;5.07;;;;;;;14.08;70.19;64438.56;5052292;28;20705;-59
2023/04/22 08:02:07;;;;;;;5.97;4.00;;;;;;;14.18;70.68;64443.94;5052409;28;20189;-58
2023/04/22 08:04:32;;;;;;;5.97;4.35;;;;;;;14.32;69.85;64459.34;5052560;28;20698;-59
2023/04/22 08:06:57;;;;;;;6.35;4.40;;;;;;;14.47;70.39;64478.34;5034651;28;20264;-57
2023/04/22 08:09:23;;;;;;;13.35;9.02;;;;;;;14.46;70.55;64479.78;5052124;28;20237;-60
2023/04/22 08:11:49;;;;;;;6.47;4.47;;;;;;;14.50;67.38;64481.09;5052425;28;20190;-59
2023/04/22 08:14:14;;;;;;;8.00;4.60;;;;;;;14.43;67.46;64473.38;5034535;28;20297;-58
2023/04/22 08:16:41;;;;;;;7.15;4.70;;;;;;;14.52;67.18;64480.75;5034221;28;20295;-59
2023/04/22 08:19:07;;;;;;;10.38;7.70;;;;;;;14.47;66.66;64475.81;5034182;28;20209;-59
2023/04/22 08:21:32;;;;;;;7.40;5.57;;;;;;;14.36;65.99;64465.72;5051320;28;20244;-58
2023/04/22 08:23:58;;;;;;;10.10;6.43;;;;;;;14.32;67.00;64458.78;5052495;28;20213;-59
2023/04/22 08:26:24;;;;;;;8.23;5.85;;;;;;;14.58;68.23;64487.34;5051953;28;20552;-60
2023/04/22 08:28:50;;;;;;;14.18;5.72;;;;;;;14.73;67.50;64504.38;5052427;28;20209;-60
2023/04/22 08:31:16;;;;;;;7.75;5.38;;;;;;;14.94;67.04;64529.44;5051618;28;20220;-59
2023/04/22 08:33:41;;;;;;;9.77;6.47;;;;;;;14.93;67.82;64528.34;5033928;28;20198;-60
2023/04/22 08:36:08;;;;;;;9.80;5.53;;;;;;;14.79;66.19;64510.97;5051221;28;20274;-58
2023/04/22 08:38:34;;;;;;;8.15;5.75;;;;;;;14.67;66.56;64497.78;5051449;28;20224;-58
2023/04/22 08:41:00;;;;;;;10.15;5.90;;;;;;;14.78;64.69;64509.88;5050237;28;20197;-60
2023/04/22 08:43:26;;;;;;;7.53;6.07;;;;;;;14.93;65.42;64526.34;5051664;28;20243;-60
2023/04/22 08:45:52;;;;;;;7.35;5.57;;;;;;;15.35;62.77;64571.97;5033680;28;20189;-58
2023/04/22 08:48:21;;;;;;;7.97;5.53;;;;;;;15.22;62.39;64560.22;5051907;28;20220;-59
2023/04/22 08:50:48;;;;;;;10.02;6.13;;;;;;;15.51;64.10;64589.06;5051679;28;20319;-59
2023/04/22 08:53:13;;;;;;;11.70;6.20;;;;;;;15.54;61.42;64592.34;5051513;28;20224;-59
2023/04/22 08:55:43;;;;;;;7.95;6.05;;;;;;;15.49;60.63;64589.97;5050533;28;20217;-59
2023/04/22 08:58:09;;;;;;;7.00;5.18;;;;;;;15.50;61.70;64590.50;5050978;28;20221;-58
2023/04/22 09:00:35;;;;;;;9.80;5.35;;;;;;;15.91;61.39;64635.59;5051560;28;20208;-59
2023/04/22 09:03:02;;;;;;;9.88;5.60;;;;;;;16.35;60.11;64683.47;5033699;28;20221;-60
2023/04/22 09:05:35;;;;;;;10.30;4.47;;;;;;;16.25;59.04;64669.91;5051526;28;20196;-59
2023/04/22 09:08:02;;;;;;;15.35;7.35;;;;;;;16.33;58.50;64678.72;5051966;28;20224;-59
2023/04/22 09:10:29;;;;;;;6.55;4.32;;;;;;;16.57;55.11;64707.72;5051539;28;20737;-59
2023/04/22 09:12:56;;;;;;;9.60;5.82;;;;;;;16.65;56.92;64713.97;5051526;28;20220;-60
2023/04/22 09:15:21;;;;;;;9.05;4.85;;;;;;;16.71;57.38;64723.13;5051309;28;20713;-59
2023/04/22 09:17:50;;;;;;;9.88;5.85;;;;;;;16.82;54.89;64732.16;5051217;28;20189;-60
2023/04/22 09:20:17;;;;;;;11.43;5.20;;;;;;;16.96;53.76;64747.56;5051145;28;20283;-60
2023/04/22 09:22:45;;;;;;;5.38;4.13;;;;;;;16.85;52.83;64738.53;5050958;28;20197;-59
2023/04/22 09:25:21;;;;;;;7.03;4.60;;;;;;;17.14;53.97;64770.50;5050661;28;20190;-59
2023/04/22 09:27:51;;;;;;;7.10;4.13;;;;;;;17.63;52.08;64821.94;5050761;28;20295;-59
2023/04/22 09:30:22;;;;;;;6.65;4.43;;;;;;;17.54;51.09;64812.03;5050838;28;20256;-59
2023/04/22 09:32:55;;;;;;;7.85;4.05;;;;;;;17.57;49.20;64815.34;5050777;28;20196;-59
2023/04/22 09:35:36;;;;;;;7.75;4.30;;;;;;;17.80;48.57;64839.59;5032787;28;20722;-58
2023/04/22 09:38:03;;;;;;;9.07;4.45;;;;;;;17.83;49.20;64840.91;5050955;28;20208;-58
2023/04/22 09:40:37;;;;;;;6.88;3.95;;;;;;;17.99;45.16;64863.09;5050777;28;20198;-58
2023/04/22 09:43:05;;;;;;;5.05;3.50;;;;;;;18.26;44.69;64890.31;5050604;28;20301;-59
2023/04/22 09:45:33;;;;;;;6.55;3.70;;;;;;;18.49;46.95;64912.59;5050839;28;20186;-59
2023/04/22 09:48:09;;;;;;;7.80;4.22;;;;;;;18.54;47.02;64918.13;5032821;28;20770;-58
2023/04/22 09:50:36;;;;;;;5.65;3.95;;;;;;;18.67;44.90;64935.00;5050997;28;20200;-62
2023/04/22 09:53:05;;;;;;;7.25;3.67;;;;;;;19.22;44.53;64998.25;5050889;28;20213;-58
2023/04/22 09:55:34;;;;;;;5.68;3.70;;;;;;;19.21;42.55;64995.13;5050392;28;20676;-59
2023/04/22 09:58:07;;;;;;;5.40;3.50;;;;;;;18.80;40.78;64949.91;5050224;28;20217;-58
2023/04/22 10:00:36;;;;;;;5.75;3.63;;;;;;;18.06;42.60;64868.28;5050765;28;20211;-59
2023/04/22 10:03:02;;;;;;;4.32;2.83;;;;;;;17.91;46.83;64852.28;5050316;28;20235;-59
2023/04/22 10:05:29;;;;;;;6.80;3.40;;;;;;;17.75;46.94;64834.66;5050562;28;20278;-59
2023/04/22 10:07:55;;;;;;;3.08;1.95;;;;;;;17.22;48.10;64776.22;5050159;28;20224;-58
2023/04/22 10:10:21;;;;;;;9.85;4.25;;;;;;;16.63;47.93;64712.34;5050411;28;20189;-58
2023/04/22 10:12:47;;;;;;;3.83;2.45;;;;;;;16.68;47.39;64717.81;5050537;28;20220;-60
2023/04/22 10:15:14;;;;;;;4.30;2.30;;;;;;;17.18;46.05;64774.34;5049007;28;20282;-59
2023/04/22 10:17:41;;;;;;;3.53;2.17;;;;;;;17.24;46.41;64778.97;5050656;28;20194;-59
2023/04/22 10:20:14;;;;;;;4.20;2.10;;;;;;;16.79;47.08;64729.94;5076209;22;20252;-57
2023/04/22 10:22:41;;;;;;;3.38;2.17;;;;;;;17.19;45.81;64775.47;5068271;28;20639;-60
2023/04/22 10:25:22;;;;;;;3.40;2.25;;;;;;;17.20;45.29;64776.56;5050595;28;20201;-59
2023/04/22 10:28:07;;;;;;;2.20;2.00;;;;;;;18.06;44.47;64868.81;5050590;28;20197;-59
2023/04/22 10:30:36;;;;;;;4.13;1.92;;;;;;;18.41;43.03;64907.41;5050376;28;20192;-60
2023/04/22 10:33:20;;;;;;;3.70;1.48;;;;;;;19.10;40.80;64982.44;5050444;28;20668;-58
2023/04/22 10:36:13;;;;;;;2.83;1.67;;;;;;;19.52;41.89;65028.84;5050151;28;20217;-59
2023/04/22 10:38:40;;;;;;;5.45;1.60;;;;;;;19.56;40.90;65033.25;5050374;28;20205;-59
2023/04/22 10:41:06;;;;;;;6.03;1.63;;;;;;;19.58;40.83;65035.47;5050198;28;20247;-59
2023/04/22 10:43:47;;;;;;;1.63;1.52;;;;;;;20.09;40.85;65091.78;5050069;28;20225;-58
2023/04/22 10:46:33;;;;;;;4.13;1.70;;;;;;;20.71;40.63;65159.75;5032140;28;20189;-58
2023/04/22 10:49:05;;;;;;;1.75;1.52;;;;;;;21.13;41.29;65203.09;5049877;28;20217;-58
2023/04/22 10:51:49;;;;;;;2.83;1.80;;;;;;;20.36;40.11;65120.53;5032234;28;20189;-59
2023/04/22 10:54:36;;;;;;;3.08;1.80;;;;;;;20.68;38.92;65156.47;5050522;28;20274;-60
2023/04/22 10:57:08;;;;;;;4.13;1.67;;;;;;;20.69;38.00;65155.00;5049874;28;20197;-60
2023/04/22 10:59:41;;;;;;;2.72;2.08;;;;;;;21.26;37.16;65216.91;5050283;28;20217;-59
2023/04/22 11:02:08;;;;;;;1.45;1.35;;;;;;;21.30;36.26;65224.47;5050114;28;20196;-60
2023/04/22 11:04:33;;;;;;;4.93;1.98;;;;;;;21.58;36.06;65252.88;5049654;28;20218;-60
2023/04/22 11:07:19;;;;;;;3.45;1.80;;;;;;;21.82;36.28;65284.00;5049982;28;20693;-58
2023/04/22 11:09:52;;;;;;;2.47;2.00;;;;;;;21.69;37.08;65264.50;5050008;28;20217;-60
2023/04/22 11:12:38;;;;;;;2.60;1.60;;;;;;;22.03;35.02;65299.00;5049812;28;20190;-59
2023/04/22 11:15:05;;;;;;;2.88;1.60;;;;;;;22.23;34.40;65323.69;5031710;28;20233;-59
2023/04/22 11:17:31;;;;;;;2.40;1.50;;;;;;;22.30;35.79;65334.56;5049936;28;20193;-58
2023/04/22 11:19:57;;;;;;;5.68;1.90;;;;;;;22.52;35.72;65358.91;5052120;28;20267;-59
2023/04/22 11:22:23;;;;;;;2.13;1.40;;;;;;;22.46;36.85;65349.16;5053172;28;20225;-59
2023/04/22 11:24:59;;;;;;;3.13;1.30;;;;;;;22.42;36.10;65347.31;5035103;28;20214;-57
2023/04/22 11:27:26;;;;;;;2.25;1.95;;;;;;;22.39;35.84;65344.53;5034961;28;20189;-58
2023/04/22 11:30:12;;;;;;;3.67;1.58;;;;;;;22.52;36.94;65360.94;5052803;28;20586;-59